Time;durP1;ratioP1;P1;durP2;ratioP2;P2;SDS_P1;SDS_P2;PMS_P1;PMS_P2;Temp;Humidity;BMP_temperature;BMP_pressure;BME280_temperature;BME280_humidity;BME280_pressure;Samples;Min_cycle;Max_cycle;Signal;HPM_P1;HPM_P2
2023/10/31 00:01:13;;;;;;;9.10;6.90;;;;;;;10.48;100.00;99320.34;5020484;28;20739;-72
2023/10/31 00:03:40;;;;;;;8.48;7.15;;;;;;;10.57;100.00;99333.13;5025424;28;20403;-73
2023/10/31 00:06:06;;;;;;;8.32;6.65;;;;;;;10.49;100.00;99334.09;5022202;28;20049;-73
2023/10/31 00:08:31;;;;;;;7.88;5.75;;;;;;;10.47;100.00;99344.66;5023496;28;20029;-72
2023/10/31 00:10:57;;;;;;;8.05;5.53;;;;;;;10.35;100.00;99355.75;5022398;28;20404;-73
2023/10/31 00:13:22;;;;;;;6.88;5.22;;;;;;;10.38;100.00;99350.16;5019776;28;20032;-72
2023/10/31 00:15:48;;;;;;;7.43;5.35;;;;;;;10.30;100.00;99358.84;5024035;28;20065;-72
2023/10/31 00:18:13;;;;;;;6.97;5.38;;;;;;;10.36;100.00;99365.09;5005250;28;20057;-73
2023/10/31 00:20:39;;;;;;;8.65;6.55;;;;;;;10.25;100.00;99372.38;5019151;28;20499;-73
2023/10/31 00:23:04;;;;;;;8.77;6.40;;;;;;;10.23;100.00;99370.97;5026589;28;20056;-72
2023/10/31 00:25:30;;;;;;;9.82;6.30;;;;;;;10.26;100.00;99384.34;5022747;28;20380;-72
2023/10/31 00:27:55;;;;;;;7.07;5.63;;;;;;;10.38;100.00;99386.44;5008113;28;20028;-72
2023/10/31 00:30:21;;;;;;;6.57;4.60;;;;;;;10.40;100.00;99394.84;5025787;28;20588;-72
2023/10/31 00:32:46;;;;;;;5.47;4.20;;;;;;;10.31;100.00;99401.94;5021518;28;20030;-72
2023/10/31 00:35:12;;;;;;;8.40;4.28;;;;;;;10.27;100.00;99396.31;5023624;28;20430;-72
2023/10/31 00:37:39;;;;;;;7.95;4.07;;;;;;;10.21;100.00;99402.25;5022854;28;20052;-72
2023/10/31 00:40:06;;;;;;;4.07;3.45;;;;;;;10.24;100.00;99404.44;5022959;28;20033;-72
2023/10/31 00:42:32;;;;;;;5.65;2.90;;;;;;;10.23;100.00;99400.28;5023689;28;20124;-73
2023/10/31 00:44:59;;;;;;;4.45;3.10;;;;;;;10.23;100.00;99408.03;5006537;28;20076;-72
2023/10/31 00:47:24;;;;;;;4.75;2.40;;;;;;;10.20;100.00;99418.75;5022592;28;20049;-72
2023/10/31 00:49:50;;;;;;;6.70;1.92;;;;;;;10.13;100.00;99415.31;5020708;28;20034;-73
2023/10/31 00:52:15;;;;;;;3.30;2.05;;;;;;;10.07;100.00;99424.63;5010385;28;20488;-73
2023/10/31 00:54:41;;;;;;;4.07;1.90;;;;;;;10.12;100.00;99422.28;5014144;28;20029;-72
2023/10/31 00:57:07;;;;;;;6.00;2.53;;;;;;;10.07;100.00;99429.81;5023339;28;20124;-72
2023/10/31 00:59:32;;;;;;;4.78;2.55;;;;;;;10.06;100.00;99435.19;5026362;28;20415;-71
2023/10/31 01:01:58;;;;;;;6.30;2.33;;;;;;;10.15;100.00;99439.25;5022961;28;20042;-72
2023/10/31 01:04:25;;;;;;;11.65;2.97;;;;;;;10.12;100.00;99443.00;5025175;28;20432;-72
2023/10/31 01:06:51;;;;;;;8.60;3.25;;;;;;;10.06;100.00;99441.16;5039868;28;20036;-72
2023/10/31 01:09:16;;;;;;;5.20;3.30;;;;;;;10.10;100.00;99450.16;5041957;28;20506;-72
2023/10/31 01:11:42;;;;;;;5.72;3.55;;;;;;;10.14;100.00;99458.38;5025997;28;20087;-72
2023/10/31 01:14:07;;;;;;;7.78;3.50;;;;;;;10.04;100.00;99463.03;5028183;28;20449;-72
2023/10/31 01:16:33;;;;;;;11.90;4.18;;;;;;;10.02;100.00;99465.84;5014023;28;20032;-72
2023/10/31 01:18:58;;;;;;;9.73;4.10;;;;;;;10.00;100.00;99472.16;5026407;28;20025;-72
2023/10/31 01:21:24;;;;;;;7.75;3.95;;;;;;;10.04;100.00;99458.69;5024583;28;20037;-72
2023/10/31 01:23:49;;;;;;;11.48;4.43;;;;;;;9.97;100.00;99475.16;5022710;28;20123;-73
2023/10/31 01:26:15;;;;;;;8.23;4.03;;;;;;;9.92;100.00;99467.91;5022741;28;20098;-73
2023/10/31 01:28:40;;;;;;;7.88;4.88;;;;;;;9.95;100.00;99483.09;5041383;28;20029;-73
2023/10/31 01:31:06;;;;;;;7.45;4.15;;;;;;;9.97;100.00;99475.16;5024466;28;20033;-72
2023/10/31 01:33:31;;;;;;;9.30;4.38;;;;;;;10.11;100.00;99477.69;5041364;28;20526;-72
2023/10/31 01:35:57;;;;;;;8.35;4.47;;;;;;;10.07;100.00;99479.00;5021817;28;20095;-73
2023/10/31 01:38:23;;;;;;;10.48;4.20;;;;;;;9.99;100.00;99476.56;5022910;28;20036;-72
2023/10/31 01:40:50;;;;;;;6.70;4.68;;;;;;;10.01;100.00;99481.56;5018787;28;20507;-73
2023/10/31 01:43:36;;;;;;;6.57;4.00;;;;;;;10.11;100.00;99484.63;5019877;28;20419;-73
2023/10/31 01:46:02;;;;;;;13.75;4.53;;;;;;;10.10;100.00;99476.06;5021263;28;20045;-73
2023/10/31 01:48:29;;;;;;;8.88;4.40;;;;;;;10.04;100.00;99491.53;5039078;28;20939;-73
2023/10/31 01:50:57;;;;;;;8.93;4.40;;;;;;;10.05;100.00;99487.97;5045501;28;20037;-72
2023/10/31 01:53:25;;;;;;;11.77;4.93;;;;;;;10.05;100.00;99487.97;5028981;28;20028;-72
2023/10/31 01:55:52;;;;;;;7.28;3.97;;;;;;;10.02;100.00;99486.56;5044705;28;20540;-72
2023/10/31 01:58:20;;;;;;;10.77;4.60;;;;;;;10.07;100.00;99491.97;5023617;28;20040;-72
2023/10/31 02:00:46;;;;;;;7.20;4.57;;;;;;;10.09;100.00;99486.59;5026314;28;20040;-72
2023/10/31 02:03:12;;;;;;;14.40;4.80;;;;;;;10.05;100.00;99493.16;5045152;28;20036;-72
2023/10/31 02:05:38;;;;;;;10.10;4.88;;;;;;;10.03;100.00;99482.16;5026668;28;20784;-72
2023/10/31 02:08:08;;;;;;;10.15;5.15;;;;;;;10.04;100.00;99484.59;5027233;28;20067;-72
2023/10/31 02:10:33;;;;;;;7.35;4.97;;;;;;;10.07;100.00;99483.41;5027794;28;20029;-73
2023/10/31 02:13:13;;;;;;;11.45;6.55;;;;;;;10.04;100.00;99482.00;5013895;28;20045;-72
2023/10/31 02:15:39;;;;;;;11.75;6.35;;;;;;;9.97;100.00;99477.75;5014350;28;20120;-73
2023/10/31 02:18:05;;;;;;;12.18;7.28;;;;;;;10.03;100.00;99474.41;5028111;28;21201;-72
2023/10/31 02:20:31;;;;;;;14.40;7.68;;;;;;;9.93;100.00;99475.50;5027791;28;20134;-73
2023/10/31 02:22:56;;;;;;;13.40;7.38;;;;;;;10.01;100.00;99489.31;5023785;28;20041;-73
2023/10/31 02:25:21;;;;;;;14.07;7.35;;;;;;;9.91;100.00;99479.28;5010738;28;20083;-73
2023/10/31 02:27:47;;;;;;;14.95;8.70;;;;;;;9.88;100.00;99480.44;5023756;28;20032;-73
2023/10/31 02:30:14;;;;;;;17.05;8.30;;;;;;;9.91;100.00;99481.88;5026746;28;20040;-73
2023/10/31 02:32:40;;;;;;;18.25;9.13;;;;;;;9.87;100.00;99486.59;5012308;28;20089;-73
2023/10/31 02:35:07;;;;;;;18.52;8.70;;;;;;;9.94;100.00;99489.25;5027884;28;20051;-73
2023/10/31 02:37:33;;;;;;;17.02;8.43;;;;;;;9.93;100.00;99487.66;5028978;28;20040;-72
2023/10/31 02:39:59;;;;;;;19.40;8.35;;;;;;;10.02;100.00;99480.56;5026603;28;20028;-73
2023/10/31 02:42:25;;;;;;;17.02;8.57;;;;;;;9.90;100.00;99486.22;5025278;28;20061;-73
2023/10/31 02:44:51;;;;;;;17.17;8.02;;;;;;;9.99;100.00;99479.16;5026656;28;20119;-73
2023/10/31 02:47:16;;;;;;;15.35;8.10;;;;;;;9.90;100.00;99485.44;5026205;28;20549;-71
2023/10/31 02:49:42;;;;;;;16.13;7.55;;;;;;;9.87;100.00;99485.78;5047301;28;20028;-73
2023/10/31 02:52:07;;;;;;;12.63;7.45;;;;;;;9.91;100.00;99480.06;5044731;28;20033;-73
2023/10/31 02:54:33;;;;;;;14.50;8.45;;;;;;;9.92;100.00;99483.44;5011466;28;22010;-72
2023/10/31 02:56:58;;;;;;;18.33;8.60;;;;;;;9.82;100.00;99485.53;5042586;28;20139;-73
2023/10/31 02:59:24;;;;;;;19.65;8.30;;;;;;;9.87;100.00;99486.59;5026222;28;20051;-72
2023/10/31 03:01:49;;;;;;;16.95;7.90;;;;;;;9.93;100.00;99482.47;5024703;28;20491;-73
2023/10/31 03:04:15;;;;;;;21.25;8.35;;;;;;;9.92;100.00;99493.81;5026480;28;20026;-73
2023/10/31 03:06:40;;;;;;;16.25;8.32;;;;;;;9.96;100.00;99483.88;5026013;28;20052;-73
2023/10/31 03:09:07;;;;;;;21.80;8.88;;;;;;;10.02;100.00;99483.16;5023611;28;20017;-73
2023/10/31 03:11:33;;;;;;;16.45;8.63;;;;;;;9.94;100.00;99490.06;5025779;28;20063;-73
2023/10/31 03:13:58;;;;;;;15.52;7.53;;;;;;;9.97;100.00;99485.50;5026888;28;20032;-72
2023/10/31 03:16:24;;;;;;;16.65;9.00;;;;;;;9.91;100.00;99493.00;5046466;28;20033;-72
2023/10/31 03:18:50;;;;;;;15.93;8.02;;;;;;;9.90;100.00;99490.59;5025846;28;20430;-72
2023/10/31 03:21:16;;;;;;;16.17;8.15;;;;;;;9.90;100.00;99491.41;5024025;28;20040;-72
2023/10/31 03:23:48;;;;;;;18.17;7.90;;;;;;;9.89;100.00;99504.56;5028237;28;20534;-72
2023/10/31 03:26:13;;;;;;;15.65;7.95;;;;;;;9.82;100.00;99499.28;5043241;28;20064;-73
2023/10/31 03:28:39;;;;;;;23.60;8.35;;;;;;;9.94;100.00;99505.59;5025051;28;20471;-73
2023/10/31 03:31:04;;;;;;;17.77;7.70;;;;;;;9.98;100.00;99507.81;5022728;28;20041;-74
2023/10/31 03:33:30;;;;;;;15.65;7.43;;;;;;;9.90;100.00;99506.13;5024651;28;20057;-73
2023/10/31 03:35:56;;;;;;;15.88;7.78;;;;;;;9.90;100.00;99519.09;5019492;28;20083;-73
2023/10/31 03:38:21;;;;;;;17.50;7.88;;;;;;;9.91;100.00;99516.31;5004192;28;20587;-73
2023/10/31 03:40:47;;;;;;;17.77;8.00;;;;;;;9.91;100.00;99520.69;5031894;28;20082;-72
2023/10/31 03:43:12;;;;;;;15.20;7.53;;;;;;;9.88;100.00;99528.81;5013442;28;20045;-72
2023/10/31 03:45:38;;;;;;;13.32;7.30;;;;;;;9.93;100.00;99526.50;5019701;28;20049;-72
2023/10/31 03:48:04;;;;;;;18.83;7.93;;;;;;;9.94;100.00;99526.31;5024732;28;20022;-70
2023/10/31 03:50:30;;;;;;;14.13;7.55;;;;;;;10.05;100.00;99524.22;5000833;28;20026;-70
2023/10/31 03:52:55;;;;;;;11.30;6.75;;;;;;;9.97;100.00;99530.31;4993997;28;20606;-73
2023/10/31 03:55:21;;;;;;;13.07;6.80;;;;;;;9.96;100.00;99533.09;5011204;28;20081;-74
2023/10/31 03:57:46;;;;;;;16.52;7.03;;;;;;;10.07;100.00;99524.84;5028728;28;20021;-72
2023/10/31 04:00:12;;;;;;;11.10;6.78;;;;;;;10.03;100.00;99539.94;5024572;28;20562;-73
2023/10/31 04:02:41;;;;;;;12.85;7.38;;;;;;;10.02;100.00;99545.31;5011466;28;20029;-74
2023/10/31 04:05:07;;;;;;;15.70;7.03;;;;;;;9.88;100.00;99547.75;5010183;28;20421;-73
2023/10/31 04:07:34;;;;;;;14.95;6.65;;;;;;;9.96;100.00;99540.84;5022385;28;20483;-72
2023/10/31 04:09:59;;;;;;;13.52;6.70;;;;;;;9.95;100.00;99542.66;5006704;28;20021;-73
2023/10/31 04:12:25;;;;;;;10.23;6.25;;;;;;;9.96;100.00;99549.41;4992295;28;20029;-73
2023/10/31 04:14:50;;;;;;;13.48;5.78;;;;;;;9.94;100.00;99557.41;5024950;28;20037;-73
2023/10/31 04:17:15;;;;;;;9.88;5.93;;;;;;;9.93;100.00;99563.53;5040634;28;20029;-72
2023/10/31 04:19:41;;;;;;;11.50;5.72;;;;;;;9.96;100.00;99564.97;5030266;28;20024;-72
2023/10/31 04:22:06;;;;;;;11.48;5.80;;;;;;;10.00;100.00;99570.59;5007734;28;20049;-72
2023/10/31 04:24:32;;;;;;;8.52;5.40;;;;;;;10.05;100.00;99563.88;5006886;28;20040;-72
2023/10/31 04:26:57;;;;;;;9.55;5.63;;;;;;;9.98;100.00;99568.16;5022661;28;20049;-72
2023/10/31 04:29:23;;;;;;;8.98;5.82;;;;;;;10.02;100.00;99572.03;5023447;28;20037;-72
2023/10/31 04:31:48;;;;;;;10.27;5.40;;;;;;;10.05;100.00;99579.41;5019219;28;20037;-72
2023/10/31 04:34:14;;;;;;;9.35;5.78;;;;;;;10.16;100.00;99580.72;5021548;28;20079;-74
2023/10/31 04:36:39;;;;;;;10.25;5.72;;;;;;;10.06;100.00;99581.03;5024217;28;20470;-73
2023/10/31 04:39:05;;;;;;;14.00;5.55;;;;;;;9.98;100.00;99588.09;5042915;28;20033;-73
2023/10/31 04:41:31;;;;;;;8.43;5.18;;;;;;;10.05;100.00;99588.97;5025167;28;20481;-73
2023/10/31 04:43:56;;;;;;;9.30;5.80;;;;;;;9.99;100.00;99590.50;5023463;28;20064;-74
2023/10/31 04:46:22;;;;;;;9.43;5.97;;;;;;;10.02;100.00;99594.50;5029898;28;20038;-73
2023/10/31 04:48:47;;;;;;;10.23;5.75;;;;;;;9.97;100.00;99599.44;5027508;28;20095;-73
2023/10/31 04:51:13;;;;;;;9.63;5.22;;;;;;;10.00;100.00;99599.88;5025013;28;20396;-73
2023/10/31 04:53:39;;;;;;;8.57;5.10;;;;;;;9.97;100.00;99608.00;5028413;28;20029;-73
2023/10/31 04:56:04;;;;;;;7.53;5.10;;;;;;;9.97;100.00;99607.22;5027810;28;20040;-73
2023/10/31 04:58:30;;;;;;;11.50;5.47;;;;;;;10.10;100.00;99615.16;5007265;28;20025;-73
2023/10/31 05:00:55;;;;;;;11.02;5.53;;;;;;;9.98;100.00;99606.22;5012478;28;21175;-73
2023/10/31 05:03:21;;;;;;;11.82;5.32;;;;;;;10.04;100.00;99614.09;5015212;28;20123;-72
2023/10/31 05:05:46;;;;;;;9.88;5.60;;;;;;;9.91;100.00;99617.31;5018154;28;20057;-73
2023/10/31 05:08:11;;;;;;;12.02;6.03;;;;;;;9.91;100.00;99630.25;5009578;28;20025;-73
2023/10/31 05:10:37;;;;;;;11.82;6.20;;;;;;;9.88;100.00;99622.84;5009917;28;20041;-73
2023/10/31 05:13:03;;;;;;;12.02;6.30;;;;;;;9.83;100.00;99629.53;4999768;28;20025;-70
2023/10/31 05:15:28;;;;;;;11.07;5.95;;;;;;;9.89;100.00;99631.44;5024075;28;20039;-72
2023/10/31 05:17:54;;;;;;;16.85;7.60;;;;;;;9.88;100.00;99629.81;4997629;28;20033;-73
2023/10/31 05:20:20;;;;;;;12.05;6.43;;;;;;;9.77;100.00;99638.03;5013396;28;20037;-73
2023/10/31 05:22:46;;;;;;;12.13;7.18;;;;;;;9.71;100.00;99644.72;5023289;28;20471;-72
2023/10/31 05:25:11;;;;;;;9.77;6.68;;;;;;;9.77;100.00;99644.00;5040746;28;20040;-73
2023/10/31 05:27:37;;;;;;;13.65;6.72;;;;;;;9.71;100.00;99645.50;5011286;28;20025;-73
2023/10/31 05:30:03;;;;;;;12.45;6.85;;;;;;;9.79;100.00;99633.47;5042760;28;20562;-73
2023/10/31 05:32:29;;;;;;;11.80;7.15;;;;;;;9.75;100.00;99636.41;5040328;28;20403;-74
2023/10/31 05:34:54;;;;;;;12.25;6.97;;;;;;;9.74;100.00;99650.34;5026525;28;20040;-73
2023/10/31 05:37:20;;;;;;;10.70;6.05;;;;;;;9.69;100.00;99651.84;5042708;28;20028;-73
2023/10/31 05:39:45;;;;;;;10.48;5.88;;;;;;;9.71;100.00;99653.28;5045043;28;20091;-74
2023/10/31 05:42:11;;;;;;;9.38;5.53;;;;;;;9.66;100.00;99657.38;5022617;28;20053;-73
2023/10/31 05:44:36;;;;;;;10.55;5.60;;;;;;;9.62;100.00;99662.09;5042931;28;20041;-74
2023/10/31 05:47:02;;;;;;;9.07;6.05;;;;;;;9.67;100.00;99666.75;5028701;28;20507;-73
2023/10/31 05:49:27;;;;;;;8.55;5.65;;;;;;;9.62;100.00;99672.47;5042033;28;20029;-73
2023/10/31 05:51:53;;;;;;;9.68;5.60;;;;;;;9.79;100.00;99673.09;5026654;28;20049;-73
2023/10/31 05:54:19;;;;;;;7.30;5.30;;;;;;;9.73;100.00;99679.00;4996659;28;20116;-73
2023/10/31 05:56:44;;;;;;;7.75;5.57;;;;;;;9.70;100.00;99690.50;5008710;28;20114;-73
2023/10/31 05:59:11;;;;;;;10.98;6.80;;;;;;;9.64;100.00;99698.16;5009781;28;20076;-73
2023/10/31 06:01:36;;;;;;;9.95;6.57;;;;;;;9.59;100.00;99695.28;5040971;28;20037;-74
2023/10/31 06:04:02;;;;;;;12.32;7.28;;;;;;;9.66;100.00;99696.22;5025200;28;20145;-73
2023/10/31 06:06:29;;;;;;;13.18;7.53;;;;;;;9.61;100.00;99694.16;5039687;28;20527;-73
2023/10/31 06:08:54;;;;;;;14.30;8.10;;;;;;;9.60;100.00;99708.06;5044087;28;20558;-73
2023/10/31 06:11:20;;;;;;;14.02;8.55;;;;;;;9.58;100.00;99712.63;5027472;28;20029;-73
2023/10/31 06:13:47;;;;;;;15.35;9.63;;;;;;;9.64;100.00;99709.31;5045612;28;20541;-72
2023/10/31 06:16:13;;;;;;;19.60;10.00;;;;;;;9.63;100.00;99714.69;5038635;28;20116;-73
2023/10/31 06:18:40;;;;;;;15.57;10.73;;;;;;;9.59;100.00;99722.00;5029198;28;20483;-73
2023/10/31 06:21:05;;;;;;;20.25;10.85;;;;;;;9.64;100.00;99729.22;5043731;28;20025;-73
2023/10/31 06:23:30;;;;;;;20.95;11.85;;;;;;;9.66;100.00;99727.28;5013958;28;20451;-73
2023/10/31 06:25:56;;;;;;;19.52;11.52;;;;;;;9.66;100.00;99732.44;5045807;28;20059;-73
2023/10/31 06:28:22;;;;;;;20.13;14.73;;;;;;;9.58;100.00;99735.13;5045673;28;20052;-73
2023/10/31 06:30:48;;;;;;;17.50;11.40;;;;;;;9.55;100.00;99739.66;5009035;28;20096;-73
2023/10/31 06:33:13;;;;;;;30.70;21.20;;;;;;;9.58;100.00;99733.31;5042827;28;20037;-74
2023/10/31 06:35:39;;;;;;;22.77;12.85;;;;;;;9.60;100.00;99736.53;5022203;28;20064;-73
2023/10/31 06:38:04;;;;;;;17.60;11.48;;;;;;;9.65;100.00;99738.63;5043405;28;20029;-73
2023/10/31 06:40:30;;;;;;;18.42;11.52;;;;;;;9.61;100.00;99748.50;5007819;28;20037;-73
2023/10/31 06:42:55;;;;;;;37.03;21.63;;;;;;;9.58;100.00;99750.66;5026062;28;20098;-73
2023/10/31 06:45:21;;;;;;;20.40;13.13;;;;;;;9.60;100.00;99748.69;5037524;28;20072;-73
2023/10/31 06:47:46;;;;;;;18.83;12.98;;;;;;;9.72;100.00;99755.06;5027944;28;20041;-74
2023/10/31 06:50:12;;;;;;;15.70;10.00;;;;;;;9.57;100.00;99743.84;5024868;28;20090;-73
2023/10/31 06:52:37;;;;;;;18.52;10.18;;;;;;;9.49;100.00;99761.06;5043701;28;20045;-73
2023/10/31 06:55:03;;;;;;;19.67;13.63;;;;;;;9.56;100.00;99753.41;5044643;28;20025;-73
2023/10/31 06:57:28;;;;;;;15.60;10.98;;;;;;;9.55;100.00;99749.22;5029255;28;20379;-73
2023/10/31 06:59:54;;;;;;;26.48;17.55;;;;;;;9.50;100.00;99751.53;5007846;28;20048;-73
2023/10/31 07:02:19;;;;;;;26.63;16.13;;;;;;;9.60;100.00;99759.03;5010148;28;20029;-73
2023/10/31 07:04:45;;;;;;;18.20;11.45;;;;;;;9.57;100.00;99756.78;5040946;28;20029;-73
2023/10/31 07:07:10;;;;;;;28.95;16.33;;;;;;;9.60;100.00;99753.84;5027214;28;21202;-73
2023/10/31 07:09:35;;;;;;;21.38;14.00;;;;;;;9.66;100.00;99755.75;5043509;28;20098;-73
2023/10/31 07:12:02;;;;;;;19.35;12.25;;;;;;;9.56;100.00;99758.56;5007861;28;20045;-74
2023/10/31 07:14:27;;;;;;;15.82;10.13;;;;;;;9.61;100.00;99766.63;5021850;28;20542;-73
2023/10/31 07:16:52;;;;;;;16.17;10.63;;;;;;;9.61;100.00;99766.63;5029650;28;20033;-73
2023/10/31 07:19:18;;;;;;;16.95;9.70;;;;;;;9.64;100.00;99768.84;5026026;28;20029;-73
2023/10/31 07:21:43;;;;;;;17.92;11.63;;;;;;;9.55;100.00;99786.25;5011471;28;20041;-73
2023/10/31 07:24:09;;;;;;;12.68;9.45;;;;;;;9.54;100.00;99783.81;5013663;28;20503;-73
2023/10/31 07:26:35;;;;;;;12.68;8.65;;;;;;;9.62;100.00;99781.16;5030361;28;20038;-73
2023/10/31 07:29:01;;;;;;;14.60;8.70;;;;;;;9.73;100.00;99790.31;5007404;28;20029;-73
2023/10/31 07:31:26;;;;;;;13.52;8.98;;;;;;;9.67;100.00;99793.59;5007315;28;20095;-73
2023/10/31 07:33:52;;;;;;;13.98;8.68;;;;;;;9.70;100.00;99795.81;4990221;28;20053;-73
2023/10/31 07:36:17;;;;;;;14.38;7.53;;;;;;;9.71;100.00;99800.03;5025233;28;20045;-73
2023/10/31 07:38:43;;;;;;;16.77;8.50;;;;;;;9.58;100.00;99803.19;5017814;28;20052;-73
2023/10/31 07:41:09;;;;;;;14.85;9.23;;;;;;;9.63;100.00;99803.50;4992253;28;20059;-72
2023/10/31 07:43:34;;;;;;;12.60;8.07;;;;;;;9.63;100.00;99810.47;5024768;28;20037;-73
2023/10/31 07:46:00;;;;;;;13.23;8.30;;;;;;;9.62;100.00;99807.06;5002060;28;20056;-73
2023/10/31 07:48:25;;;;;;;29.00;16.70;;;;;;;9.72;100.00;99809.41;5021854;28;20083;-72
2023/10/31 07:50:51;;;;;;;15.13;8.32;;;;;;;9.75;100.00;99811.66;5040405;28;20041;-73
2023/10/31 07:53:17;;;;;;;15.57;7.85;;;;;;;9.72;100.00;99806.84;5045188;28;20040;-72
2023/10/31 07:55:42;;;;;;;11.35;7.30;;;;;;;9.76;100.00;99808.09;5012892;28;20037;-72
2023/10/31 07:58:09;;;;;;;13.45;9.82;;;;;;;9.70;100.00;99808.75;5043968;28;20033;-73
2023/10/31 08:00:35;;;;;;;12.48;9.10;;;;;;;9.77;100.00;99814.88;5007817;28;20033;-73
2023/10/31 08:03:01;;;;;;;16.48;7.95;;;;;;;9.81;100.00;99807.56;5009184;28;20037;-73
2023/10/31 08:05:27;;;;;;;11.55;7.25;;;;;;;9.88;100.00;99816.25;5008418;28;20041;-73
2023/10/31 08:07:52;;;;;;;11.98;7.82;;;;;;;9.92;100.00;99812.31;5022986;28;20040;-73
2023/10/31 08:10:18;;;;;;;13.52;8.32;;;;;;;9.93;100.00;99812.13;5008059;28;20052;-73
2023/10/31 08:12:43;;;;;;;19.77;10.60;;;;;;;10.00;100.00;99814.84;5023125;28;20079;-73
2023/10/31 08:15:09;;;;;;;13.82;7.47;;;;;;;10.06;100.00;99814.13;5037476;28;20067;-73
2023/10/31 08:17:35;;;;;;;11.70;6.90;;;;;;;10.16;100.00;99818.25;5040833;28;20175;-73
2023/10/31 08:20:03;;;;;;;17.77;12.13;;;;;;;10.18;100.00;99817.09;5020209;28;20121;-71
2023/10/31 08:22:28;;;;;;;9.93;6.55;;;;;;;10.30;100.00;99820.91;5043414;28;20407;-72
2023/10/31 08:24:54;;;;;;;12.85;6.97;;;;;;;10.18;100.00;99822.28;5039538;28;20028;-73
2023/10/31 08:27:19;;;;;;;12.75;6.93;;;;;;;10.10;100.00;99824.94;5028471;28;21210;-73
2023/10/31 08:29:45;;;;;;;10.60;7.05;;;;;;;10.14;100.00;99832.19;5017442;28;20025;-73
2023/10/31 08:32:10;;;;;;;12.20;7.72;;;;;;;10.11;100.00;99829.13;5026581;28;20080;-73
2023/10/31 08:34:36;;;;;;;12.68;7.90;;;;;;;10.05;100.00;99829.84;5046557;28;20048;-73
2023/10/31 08:37:02;;;;;;;14.40;11.55;;;;;;;10.01;100.00;99831.19;5031460;28;20044;-73
2023/10/31 08:39:27;;;;;;;11.45;8.63;;;;;;;10.01;100.00;99831.19;5046510;28;20028;-73
2023/10/31 08:41:57;;;;;;;15.07;9.55;;;;;;;10.05;100.00;99835.03;5030795;28;20040;-73
2023/10/31 08:44:23;;;;;;;14.10;7.85;;;;;;;10.03;100.00;99830.00;5029560;28;20710;-73
2023/10/31 08:46:49;;;;;;;13.75;7.97;;;;;;;10.03;100.00;99835.19;5028052;28;20025;-73
2023/10/31 08:49:16;;;;;;;14.27;7.63;;;;;;;10.00;100.00;99839.91;5029013;28;20037;-73
2023/10/31 08:51:43;;;;;;;13.80;9.05;;;;;;;10.07;100.00;99841.63;5021971;28;20399;-73
2023/10/31 08:54:09;;;;;;;11.35;8.10;;;;;;;10.11;100.00;99850.69;5028932;28;20136;-74
2023/10/31 08:56:35;;;;;;;13.48;8.25;;;;;;;10.28;100.00;99851.34;4999842;28;20038;-74
2023/10/31 08:59:00;;;;;;;13.52;7.72;;;;;;;10.73;100.00;99855.75;5006978;28;20179;-73
2023/10/31 09:01:27;;;;;;;12.90;8.48;;;;;;;11.00;100.00;99849.91;5039382;28;20380;-73
2023/10/31 09:03:52;;;;;;;13.02;7.93;;;;;;;11.12;100.00;99858.03;5029237;28;20116;-72
2023/10/31 09:06:18;;;;;;;12.73;7.57;;;;;;;11.08;100.00;99870.56;5018936;28;20116;-72
2023/10/31 09:08:43;;;;;;;12.15;7.00;;;;;;;10.99;100.00;99871.66;5025906;28;20044;-72
2023/10/31 09:11:09;;;;;;;9.75;7.82;;;;;;;10.95;100.00;99875.59;5028743;28;20045;-73
2023/10/31 09:13:34;;;;;;;15.32;9.63;;;;;;;10.82;100.00;99886.59;4995215;28;20920;-73
2023/10/31 09:16:00;;;;;;;11.98;7.53;;;;;;;10.80;100.00;99883.38;5011874;28;20061;-71
2023/10/31 09:18:26;;;;;;;12.32;7.75;;;;;;;10.74;100.00;99884.09;5028994;28;20060;-73
2023/10/31 09:20:52;;;;;;;10.50;6.93;;;;;;;10.83;100.00;99892.56;5021998;28;20095;-73
2023/10/31 09:23:17;;;;;;;11.98;7.13;;;;;;;10.95;100.00;99901.53;5008554;28;20073;-73
2023/10/31 09:25:43;;;;;;;12.45;7.82;;;;;;;11.00;100.00;99896.59;5021801;28;20038;-73
2023/10/31 09:28:09;;;;;;;13.15;7.82;;;;;;;11.10;100.00;99906.72;5011835;28;20026;-73
2023/10/31 09:30:34;;;;;;;12.60;7.38;;;;;;;11.00;100.00;99908.75;5013303;28;20156;-73
2023/10/31 09:33:00;;;;;;;10.10;6.95;;;;;;;11.03;100.00;99914.38;5027127;28;20116;-73
2023/10/31 09:35:26;;;;;;;12.90;8.32;;;;;;;10.99;100.00;99926.13;5011274;28;20083;-73
2023/10/31 09:37:52;;;;;;;10.57;6.80;;;;;;;11.10;100.00;99932.66;5024761;28;20033;-74
2023/10/31 09:40:17;;;;;;;9.00;5.93;;;;;;;11.10;100.00;99928.25;5027986;28;20045;-73
2023/10/31 09:42:47;;;;;;;9.95;5.80;;;;;;;11.22;100.00;99935.59;5011490;28;20125;-73
2023/10/31 09:45:13;;;;;;;12.23;6.55;;;;;;;11.20;100.00;99942.75;5029357;28;20052;-73
2023/10/31 09:47:40;;;;;;;11.32;5.15;;;;;;;11.22;100.00;99948.56;5028349;28;20036;-73
2023/10/31 09:50:08;;;;;;;10.40;5.40;;;;;;;11.13;100.00;99942.66;5046729;28;20126;-73
2023/10/31 09:52:33;;;;;;;8.38;4.80;;;;;;;11.08;100.00;99957.97;5027389;28;20038;-73
2023/10/31 09:54:59;;;;;;;10.48;5.50;;;;;;;11.16;100.00;99951.88;5009023;28;20380;-73
2023/10/31 09:57:26;;;;;;;9.95;4.72;;;;;;;11.17;100.00;99953.47;5008118;28;20188;-73
2023/10/31 09:59:51;;;;;;;11.38;5.00;;;;;;;11.25;100.00;99954.19;5041506;28;20029;-70
2023/10/31 10:02:17;;;;;;;6.53;4.45;;;;;;;11.29;100.00;99957.22;5041444;28;20116;-71
2023/10/31 10:04:43;;;;;;;8.43;4.68;;;;;;;11.27;100.00;99961.81;5025310;28;20408;-70
2023/10/31 10:07:09;;;;;;;9.50;4.13;;;;;;;11.35;100.00;99969.47;5043618;28;20037;-71
2023/10/31 10:09:34;;;;;;;10.90;3.83;;;;;;;11.45;100.00;99970.03;5029302;28;20040;-71
2023/10/31 10:12:01;;;;;;;7.13;4.20;;;;;;;11.45;100.00;99975.22;5038628;28;20040;-71
2023/10/31 10:14:33;;;;;;;9.38;4.85;;;;;;;11.61;100.00;99981.97;5007387;28;20033;-71
2023/10/31 10:16:59;;;;;;;4.78;3.38;;;;;;;11.56;100.00;99971.31;5022150;28;20588;-71
2023/10/31 10:19:25;;;;;;;11.45;3.95;;;;;;;11.57;100.00;99978.13;5022384;28;20025;-71
2023/10/31 10:21:56;;;;;;;6.35;3.10;;;;;;;11.59;100.00;99980.56;5038735;28;20094;-71
2023/10/31 10:24:24;;;;;;;7.32;3.03;;;;;;;11.45;100.00;99980.41;5021106;28;20036;-71
2023/10/31 10:26:50;;;;;;;5.93;3.13;;;;;;;11.53;100.00;99984.69;5039392;28;20037;-71
2023/10/31 10:29:17;;;;;;;5.32;2.88;;;;;;;11.55;100.00;99987.91;5041969;28;20060;-71
2023/10/31 10:31:44;;;;;;;6.57;2.83;;;;;;;11.62;100.00;99991.38;5036322;28;20474;-72
2023/10/31 10:34:10;;;;;;;8.02;2.75;;;;;;;11.80;100.00;99997.97;5018116;28;20490;-71
2023/10/31 10:36:36;;;;;;;5.60;2.30;;;;;;;11.79;100.00;99998.94;5039985;28;20045;-71
2023/10/31 10:39:03;;;;;;;9.27;2.15;;;;;;;11.84;100.00;99994.81;5022101;28;20043;-71
2023/10/31 10:41:29;;;;;;;9.10;2.30;;;;;;;11.84;100.00;100007.00;5040509;28;20044;-71
2023/10/31 10:44:01;;;;;;;8.07;2.50;;;;;;;11.87;100.00;100001.44;5041252;28;20048;-71
2023/10/31 10:46:29;;;;;;;5.65;2.22;;;;;;;11.87;100.00;99999.66;5043784;28;20075;-71
2023/10/31 10:48:59;;;;;;;6.63;2.50;;;;;;;12.01;100.00;100010.19;5024087;28;20037;-71
2023/10/31 10:52:01;;;;;;;3.72;2.30;;;;;;;12.01;100.00;100007.59;5010310;28;20120;-71
2023/10/31 10:54:34;;;;;;;3.92;2.35;;;;;;;12.10;100.00;100010.91;5022796;28;20037;-71
2023/10/31 10:57:17;;;;;;;4.68;1.75;;;;;;;12.04;100.00;100012.44;5021311;28;20107;-71
2023/10/31 10:59:54;;;;;;;;;;;;;;;12.08;100.00;100011.06;5022143;28;20034;-71
2023/10/31 11:02:19;;;;;;;5.75;1.95;;;;;;;11.99;100.00;100014.78;5003550;28;19936;-71
2023/10/31 11:04:46;;;;;;;5.55;2.05;;;;;;;12.00;100.00;100012.00;5025196;28;20030;-73
2023/10/31 11:07:12;;;;;;;6.35;2.28;;;;;;;11.99;100.00;100012.97;5041696;28;20132;-71
2023/10/31 11:09:39;;;;;;;9.45;1.83;;;;;;;12.05;100.00;100014.88;5024469;28;20163;-71
2023/10/31 11:12:06;;;;;;;3.38;1.90;;;;;;;12.03;100.00;100014.22;5022739;28;20093;-72
2023/10/31 11:14:33;;;;;;;5.75;1.88;;;;;;;12.12;100.00;100016.72;5026780;28;20029;-71
2023/10/31 11:17:04;;;;;;;2.47;1.60;;;;;;;12.05;100.00;100014.03;5022616;28;20087;-72